sensor_id;sensor_type;location;lat;lon;timestamp;P1;durP1;ratioP1;P2;durP2;ratioP2
55300;SDS011;58302;51.446;-2.000;2023-03-21T00:00:32;4.97;;;2.42;;
55300;SDS011;58302;51.446;-2.000;2023-03-21T00:02:57;5.97;;;3.05;;
55300;SDS011;58302;51.446;-2.000;2023-03-21T00:05:24;6.68;;;2.58;;
55300;SDS011;58302;51.446;-2.000;2023-03-21T00:07:50;5.95;;;2.80;;
55300;SDS011;58302;51.446;-2.000;2023-03-21T00:10:16;7.85;;;3.47;;
55300;SDS011;58302;51.446;-2.000;2023-03-21T00:12:42;10.43;;;3.65;;
55300;SDS011;58302;51.446;-2.000;2023-03-21T00:15:09;4.03;;;2.70;;
55300;SDS011;58302;51.446;-2.000;2023-03-21T00:17:37;5.93;;;3.00;;
55300;SDS011;58302;51.446;-2.000;2023-03-21T00:20:04;11.43;;;3.90;;
55300;SDS011;58302;51.446;-2.000;2023-03-21T00:22:33;7.35;;;3.05;;
55300;SDS011;58302;51.446;-2.000;2023-03-21T00:25:00;8.25;;;3.58;;
55300;SDS011;58302;51.446;-2.000;2023-03-21T00:27:26;6.30;;;3.10;;
55300;SDS011;58302;51.446;-2.000;2023-03-21T00:29:52;5.43;;;2.55;;
55300;SDS011;58302;51.446;-2.000;2023-03-21T00:32:18;7.40;;;2.22;;
55300;SDS011;58302;51.446;-2.000;2023-03-21T00:34:46;10.50;;;3.20;;
55300;SDS011;58302;51.446;-2.000;2023-03-21T00:44:38;3.92;;;1.95;;
55300;SDS011;58302;51.446;-2.000;2023-03-21T00:47:05;10.50;;;2.80;;
55300;SDS011;58302;51.446;-2.000;2023-03-21T00:49:31;7.93;;;2.90;;
55300;SDS011;58302;51.446;-2.000;2023-03-21T00:52:06;7.80;;;2.88;;
55300;SDS011;58302;51.446;-2.000;2023-03-21T00:54:33;5.35;;;2.60;;
55300;SDS011;58302;51.446;-2.000;2023-03-21T00:57:02;6.10;;;1.73;;
55300;SDS011;58302;51.446;-2.000;2023-03-21T00:59:28;10.90;;;2.95;;
55300;SDS011;58302;51.446;-2.000;2023-03-21T01:01:55;4.05;;;1.88;;
55300;SDS011;58302;51.446;-2.000;2023-03-21T01:04:21;5.35;;;1.92;;
55300;SDS011;58302;51.446;-2.000;2023-03-21T01:06:52;3.65;;;3.13;;
55300;SDS011;58302;51.446;-2.000;2023-03-21T01:09:20;2.05;;;1.67;;
55300;SDS011;58302;51.446;-2.000;2023-03-21T01:11:48;6.00;;;2.13;;
55300;SDS011;58302;51.446;-2.000;2023-03-21T01:14:16;6.57;;;2.08;;
55300;SDS011;58302;51.446;-2.000;2023-03-21T01:16:43;6.47;;;2.75;;
55300;SDS011;58302;51.446;-2.000;2023-03-21T01:19:11;4.85;;;2.03;;
55300;SDS011;58302;51.446;-2.000;2023-03-21T01:21:39;8.00;;;2.75;;
55300;SDS011;58302;51.446;-2.000;2023-03-21T01:24:05;5.75;;;2.58;;
55300;SDS011;58302;51.446;-2.000;2023-03-21T01:26:31;6.57;;;2.10;;
55300;SDS011;58302;51.446;-2.000;2023-03-21T01:28:57;5.18;;;2.97;;
55300;SDS011;58302;51.446;-2.000;2023-03-21T01:31:23;10.60;;;3.53;;
55300;SDS011;58302;51.446;-2.000;2023-03-21T01:33:49;13.85;;;3.15;;
55300;SDS011;58302;51.446;-2.000;2023-03-21T01:36:17;8.20;;;2.33;;
55300;SDS011;58302;51.446;-2.000;2023-03-21T01:38:48;4.85;;;2.33;;
55300;SDS011;58302;51.446;-2.000;2023-03-21T01:41:17;3.15;;;1.85;;
55300;SDS011;58302;51.446;-2.000;2023-03-21T01:43:46;4.22;;;2.58;;
55300;SDS011;58302;51.446;-2.000;2023-03-21T01:46:47;6.57;;;2.78;;
55300;SDS011;58302;51.446;-2.000;2023-03-21T01:49:15;7.63;;;3.10;;
55300;SDS011;58302;51.446;-2.000;2023-03-21T01:51:52;4.93;;;3.22;;
55300;SDS011;58302;51.446;-2.000;2023-03-21T01:54:23;6.47;;;2.70;;
55300;SDS011;58302;51.446;-2.000;2023-03-21T01:56:54;5.03;;;2.58;;
55300;SDS011;58302;51.446;-2.000;2023-03-21T01:59:30;3.47;;;2.20;;
55300;SDS011;58302;51.446;-2.000;2023-03-21T02:02:02;7.20;;;2.17;;
55300;SDS011;58302;51.446;-2.000;2023-03-21T02:04:34;3.80;;;2.35;;
55300;SDS011;58302;51.446;-2.000;2023-03-21T02:07:06;9.13;;;2.20;;
55300;SDS011;58302;51.446;-2.000;2023-03-21T02:09:37;5.13;;;2.60;;
55300;SDS011;58302;51.446;-2.000;2023-03-21T02:12:06;14.30;;;3.40;;
55300;SDS011;58302;51.446;-2.000;2023-03-21T02:14:34;5.47;;;3.33;;
55300;SDS011;58302;51.446;-2.000;2023-03-21T02:28:04;3.80;;;2.50;;
55300;SDS011;58302;51.446;-2.000;2023-03-21T02:30:40;10.25;;;3.47;;
55300;SDS011;58302;51.446;-2.000;2023-03-21T02:36:05;8.25;;;2.58;;
55300;SDS011;58302;51.446;-2.000;2023-03-21T02:38:36;3.42;;;2.10;;
55300;SDS011;58302;51.446;-2.000;2023-03-21T02:44:16;7.05;;;2.10;;
55300;SDS011;58302;51.446;-2.000;2023-03-21T02:46:58;4.87;;;2.03;;
55300;SDS011;58302;51.446;-2.000;2023-03-21T02:51:59;3.78;;;2.92;;
55300;SDS011;58302;51.446;-2.000;2023-03-21T02:54:28;5.65;;;3.03;;
55300;SDS011;58302;51.446;-2.000;2023-03-21T02:56:57;7.18;;;2.75;;
55300;SDS011;58302;51.446;-2.000;2023-03-21T02:59:25;4.72;;;2.72;;
55300;SDS011;58302;51.446;-2.000;2023-03-21T03:01:52;8.50;;;2.92;;
55300;SDS011;58302;51.446;-2.000;2023-03-21T03:04:20;2.72;;;1.92;;
55300;SDS011;58302;51.446;-2.000;2023-03-21T03:06:53;5.65;;;3.40;;
55300;SDS011;58302;51.446;-2.000;2023-03-21T03:23:28;7.32;;;3.90;;
55300;SDS011;58302;51.446;-2.000;2023-03-21T03:26:18;5.75;;;3.22;;
55300;SDS011;58302;51.446;-2.000;2023-03-21T03:29:05;6.35;;;4.00;;
55300;SDS011;58302;51.446;-2.000;2023-03-21T03:31:38;4.18;;;2.85;;
55300;SDS011;58302;51.446;-2.000;2023-03-21T03:34:09;10.23;;;4.13;;
55300;SDS011;58302;51.446;-2.000;2023-03-21T03:36:39;4.43;;;3.35;;
55300;SDS011;58302;51.446;-2.000;2023-03-21T03:39:09;7.82;;;4.13;;
55300;SDS011;58302;51.446;-2.000;2023-03-21T03:41:40;8.55;;;4.10;;
55300;SDS011;58302;51.446;-2.000;2023-03-21T03:44:10;13.40;;;5.53;;
55300;SDS011;58302;51.446;-2.000;2023-03-21T03:46:43;8.10;;;4.15;;
55300;SDS011;58302;51.446;-2.000;2023-03-21T03:49:40;8.80;;;4.40;;
55300;SDS011;58302;51.446;-2.000;2023-03-21T03:52:13;10.32;;;5.22;;
55300;SDS011;58302;51.446;-2.000;2023-03-21T03:57:12;10.40;;;5.05;;
55300;SDS011;58302;51.446;-2.000;2023-03-21T03:59:40;8.80;;;5.00;;
55300;SDS011;58302;51.446;-2.000;2023-03-21T04:02:07;9.63;;;4.32;;
55300;SDS011;58302;51.446;-2.000;2023-03-21T04:04:33;11.52;;;4.60;;
55300;SDS011;58302;51.446;-2.000;2023-03-21T04:07:01;11.48;;;6.32;;
55300;SDS011;58302;51.446;-2.000;2023-03-21T04:09:28;8.98;;;4.55;;
55300;SDS011;58302;51.446;-2.000;2023-03-21T04:11:55;10.38;;;5.80;;
55300;SDS011;58302;51.446;-2.000;2023-03-21T04:14:22;7.50;;;4.18;;
55300;SDS011;58302;51.446;-2.000;2023-03-21T04:16:49;8.40;;;4.68;;
55300;SDS011;58302;51.446;-2.000;2023-03-21T04:19:17;8.85;;;4.63;;
55300;SDS011;58302;51.446;-2.000;2023-03-21T04:21:44;10.43;;;5.25;;
55300;SDS011;58302;51.446;-2.000;2023-03-21T04:24:11;5.60;;;3.35;;
55300;SDS011;58302;51.446;-2.000;2023-03-21T04:26:38;11.73;;;3.95;;
55300;SDS011;58302;51.446;-2.000;2023-03-21T04:29:05;4.82;;;3.42;;
55300;SDS011;58302;51.446;-2.000;2023-03-21T04:31:31;5.18;;;3.25;;
55300;SDS011;58302;51.446;-2.000;2023-03-21T04:33:59;7.25;;;3.50;;
55300;SDS011;58302;51.446;-2.000;2023-03-21T04:36:27;6.47;;;3.00;;
55300;SDS011;58302;51.446;-2.000;2023-03-21T04:38:58;4.80;;;2.55;;
55300;SDS011;58302;51.446;-2.000;2023-03-21T04:41:29;4.60;;;2.90;;
55300;SDS011;58302;51.446;-2.000;2023-03-21T04:43:55;5.47;;;2.20;;
55300;SDS011;58302;51.446;-2.000;2023-03-21T04:46:21;6.18;;;2.70;;
55300;SDS011;58302;51.446;-2.000;2023-03-21T04:48:48;7.07;;;3.05;;
55300;SDS011;58302;51.446;-2.000;2023-03-21T04:51:14;5.43;;;2.80;;
55300;SDS011;58302;51.446;-2.000;2023-03-21T04:53:40;4.75;;;3.10;;
55300;SDS011;58302;51.446;-2.000;2023-03-21T04:56:10;3.88;;;2.58;;
55300;SDS011;58302;51.446;-2.000;2023-03-21T04:58:36;5.45;;;2.65;;
55300;SDS011;58302;51.446;-2.000;2023-03-21T05:01:05;6.68;;;2.53;;
55300;SDS011;58302;51.446;-2.000;2023-03-21T05:03:31;5.70;;;2.70;;
55300;SDS011;58302;51.446;-2.000;2023-03-21T05:06:07;4.05;;;2.42;;
55300;SDS011;58302;51.446;-2.000;2023-03-21T05:08:34;4.13;;;2.55;;
55300;SDS011;58302;51.446;-2.000;2023-03-21T05:11:01;4.57;;;1.77;;
55300;SDS011;58302;51.446;-2.000;2023-03-21T05:13:27;8.57;;;2.40;;
55300;SDS011;58302;51.446;-2.000;2023-03-21T05:15:53;4.47;;;1.95;;
55300;SDS011;58302;51.446;-2.000;2023-03-21T05:18:19;4.28;;;2.38;;
55300;SDS011;58302;51.446;-2.000;2023-03-21T05:20:50;4.97;;;2.38;;
55300;SDS011;58302;51.446;-2.000;2023-03-21T05:23:19;4.65;;;2.88;;
55300;SDS011;58302;51.446;-2.000;2023-03-21T05:25:46;2.65;;;2.20;;
55300;SDS011;58302;51.446;-2.000;2023-03-21T05:28:12;2.90;;;2.00;;
55300;SDS011;58302;51.446;-2.000;2023-03-21T05:30:43;3.28;;;2.50;;
55300;SDS011;58302;51.446;-2.000;2023-03-21T05:33:11;8.60;;;2.65;;
55300;SDS011;58302;51.446;-2.000;2023-03-21T05:35:38;2.92;;;1.95;;
55300;SDS011;58302;51.446;-2.000;2023-03-21T05:38:04;7.72;;;3.05;;
55300;SDS011;58302;51.446;-2.000;2023-03-21T05:40:30;5.07;;;2.33;;
55300;SDS011;58302;51.446;-2.000;2023-03-21T05:42:56;6.20;;;2.45;;
55300;SDS011;58302;51.446;-2.000;2023-03-21T05:45:22;9.85;;;3.50;;
55300;SDS011;58302;51.446;-2.000;2023-03-21T05:47:48;3.80;;;2.33;;
55300;SDS011;58302;51.446;-2.000;2023-03-21T05:50:14;6.20;;;4.38;;
55300;SDS011;58302;51.446;-2.000;2023-03-21T05:52:40;7.55;;;3.83;;
55300;SDS011;58302;51.446;-2.000;2023-03-21T05:55:06;5.38;;;3.38;;
55300;SDS011;58302;51.446;-2.000;2023-03-21T05:57:32;6.70;;;3.95;;
55300;SDS011;58302;51.446;-2.000;2023-03-21T06:00:04;4.90;;;3.15;;
55300;SDS011;58302;51.446;-2.000;2023-03-21T06:02:32;4.05;;;2.63;;
55300;SDS011;58302;51.446;-2.000;2023-03-21T06:04:58;5.25;;;3.05;;
55300;SDS011;58302;51.446;-2.000;2023-03-21T06:07:24;8.25;;;3.55;;
55300;SDS011;58302;51.446;-2.000;2023-03-21T06:09:50;8.50;;;2.95;;
55300;SDS011;58302;51.446;-2.000;2023-03-21T06:12:16;6.60;;;2.75;;
55300;SDS011;58302;51.446;-2.000;2023-03-21T06:14:42;11.77;;;4.03;;
55300;SDS011;58302;51.446;-2.000;2023-03-21T06:17:08;5.80;;;3.53;;
55300;SDS011;58302;51.446;-2.000;2023-03-21T06:19:34;7.47;;;3.45;;
55300;SDS011;58302;51.446;-2.000;2023-03-21T06:22:00;10.85;;;4.45;;
55300;SDS011;58302;51.446;-2.000;2023-03-21T06:24:26;6.28;;;3.83;;
55300;SDS011;58302;51.446;-2.000;2023-03-21T06:26:52;7.10;;;3.65;;
55300;SDS011;58302;51.446;-2.000;2023-03-21T06:29:18;15.30;;;5.03;;
55300;SDS011;58302;51.446;-2.000;2023-03-21T06:31:44;10.80;;;4.78;;
55300;SDS011;58302;51.446;-2.000;2023-03-21T06:34:10;10.40;;;4.25;;
55300;SDS011;58302;51.446;-2.000;2023-03-21T06:36:36;6.07;;;3.53;;
55300;SDS011;58302;51.446;-2.000;2023-03-21T06:39:03;10.88;;;4.68;;
55300;SDS011;58302;51.446;-2.000;2023-03-21T06:41:30;6.50;;;3.97;;
55300;SDS011;58302;51.446;-2.000;2023-03-21T06:43:56;12.73;;;4.88;;
55300;SDS011;58302;51.446;-2.000;2023-03-21T06:46:22;20.55;;;4.55;;
55300;SDS011;58302;51.446;-2.000;2023-03-21T06:48:48;12.27;;;4.18;;
55300;SDS011;58302;51.446;-2.000;2023-03-21T06:51:14;13.38;;;4.50;;
55300;SDS011;58302;51.446;-2.000;2023-03-21T06:53:40;9.73;;;4.30;;
55300;SDS011;58302;51.446;-2.000;2023-03-21T06:56:07;7.10;;;3.63;;
55300;SDS011;58302;51.446;-2.000;2023-03-21T06:58:34;9.93;;;4.70;;
55300;SDS011;58302;51.446;-2.000;2023-03-21T07:01:01;9.68;;;3.67;;
55300;SDS011;58302;51.446;-2.000;2023-03-21T07:03:27;8.05;;;3.00;;
55300;SDS011;58302;51.446;-2.000;2023-03-21T07:05:53;13.32;;;4.00;;
55300;SDS011;58302;51.446;-2.000;2023-03-21T07:08:20;13.52;;;4.97;;
55300;SDS011;58302;51.446;-2.000;2023-03-21T07:10:46;10.55;;;3.80;;
55300;SDS011;58302;51.446;-2.000;2023-03-21T07:13:12;10.10;;;4.45;;
55300;SDS011;58302;51.446;-2.000;2023-03-21T07:15:39;7.88;;;3.83;;
55300;SDS011;58302;51.446;-2.000;2023-03-21T07:18:06;9.70;;;4.18;;
55300;SDS011;58302;51.446;-2.000;2023-03-21T07:20:34;8.52;;;4.43;;
55300;SDS011;58302;51.446;-2.000;2023-03-21T07:23:02;12.63;;;3.72;;
55300;SDS011;58302;51.446;-2.000;2023-03-21T07:25:28;15.68;;;5.13;;
55300;SDS011;58302;51.446;-2.000;2023-03-21T07:27:55;7.10;;;2.40;;
55300;SDS011;58302;51.446;-2.000;2023-03-21T07:30:21;9.52;;;4.03;;
55300;SDS011;58302;51.446;-2.000;2023-03-21T07:32:47;11.65;;;3.80;;
55300;SDS011;58302;51.446;-2.000;2023-03-21T07:35:14;6.57;;;3.10;;
55300;SDS011;58302;51.446;-2.000;2023-03-21T07:37:42;14.35;;;3.55;;
55300;SDS011;58302;51.446;-2.000;2023-03-21T07:40:08;8.70;;;4.20;;
55300;SDS011;58302;51.446;-2.000;2023-03-21T07:42:36;11.40;;;3.97;;
55300;SDS011;58302;51.446;-2.000;2023-03-21T07:45:02;10.85;;;3.83;;
55300;SDS011;58302;51.446;-2.000;2023-03-21T07:47:30;13.80;;;4.03;;
55300;SDS011;58302;51.446;-2.000;2023-03-21T07:49:56;10.48;;;3.65;;
55300;SDS011;58302;51.446;-2.000;2023-03-21T07:52:22;9.38;;;3.70;;
55300;SDS011;58302;51.446;-2.000;2023-03-21T07:54:48;7.43;;;3.58;;
55300;SDS011;58302;51.446;-2.000;2023-03-21T07:57:14;8.15;;;2.90;;
55300;SDS011;58302;51.446;-2.000;2023-03-21T07:59:41;9.68;;;3.17;;
55300;SDS011;58302;51.446;-2.000;2023-03-21T08:02:08;12.38;;;6.10;;
55300;SDS011;58302;51.446;-2.000;2023-03-21T08:04:38;6.22;;;2.72;;
55300;SDS011;58302;51.446;-2.000;2023-03-21T08:07:04;5.97;;;2.42;;
55300;SDS011;58302;51.446;-2.000;2023-03-21T08:09:30;3.83;;;2.25;;
55300;SDS011;58302;51.446;-2.000;2023-03-21T08:11:56;4.68;;;2.58;;
55300;SDS011;58302;51.446;-2.000;2023-03-21T08:14:22;9.25;;;2.88;;
55300;SDS011;58302;51.446;-2.000;2023-03-21T08:16:48;4.78;;;2.22;;
55300;SDS011;58302;51.446;-2.000;2023-03-21T08:19:14;6.20;;;3.25;;
55300;SDS011;58302;51.446;-2.000;2023-03-21T08:21:43;7.30;;;2.33;;
55300;SDS011;58302;51.446;-2.000;2023-03-21T08:24:09;3.55;;;2.35;;
55300;SDS011;58302;51.446;-2.000;2023-03-21T08:26:35;5.07;;;1.80;;
55300;SDS011;58302;51.446;-2.000;2023-03-21T08:29:01;5.63;;;1.92;;
55300;SDS011;58302;51.446;-2.000;2023-03-21T08:31:27;6.47;;;2.28;;
55300;SDS011;58302;51.446;-2.000;2023-03-21T08:33:53;2.20;;;1.35;;
55300;SDS011;58302;51.446;-2.000;2023-03-21T08:36:23;5.60;;;2.00;;
55300;SDS011;58302;51.446;-2.000;2023-03-21T08:38:50;5.45;;;1.30;;
55300;SDS011;58302;51.446;-2.000;2023-03-21T08:41:20;6.82;;;2.15;;
55300;SDS011;58302;51.446;-2.000;2023-03-21T08:43:49;5.05;;;1.85;;
55300;SDS011;58302;51.446;-2.000;2023-03-21T08:46:15;6.00;;;1.85;;
55300;SDS011;58302;51.446;-2.000;2023-03-21T08:48:41;3.22;;;1.35;;
55300;SDS011;58302;51.446;-2.000;2023-03-21T08:51:07;4.57;;;1.55;;
55300;SDS011;58302;51.446;-2.000;2023-03-21T08:53:33;3.25;;;1.60;;
55300;SDS011;58302;51.446;-2.000;2023-03-21T08:55:59;4.70;;;1.60;;
55300;SDS011;58302;51.446;-2.000;2023-03-21T08:58:25;7.35;;;2.53;;
55300;SDS011;58302;51.446;-2.000;2023-03-21T09:00:51;4.05;;;1.40;;
55300;SDS011;58302;51.446;-2.000;2023-03-21T09:03:17;4.45;;;1.42;;
55300;SDS011;58302;51.446;-2.000;2023-03-21T09:05:44;4.80;;;1.58;;
55300;SDS011;58302;51.446;-2.000;2023-03-21T09:08:11;3.60;;;1.60;;
55300;SDS011;58302;51.446;-2.000;2023-03-21T09:10:37;5.30;;;1.65;;
55300;SDS011;58302;51.446;-2.000;2023-03-21T09:13:03;9.38;;;2.15;;
55300;SDS011;58302;51.446;-2.000;2023-03-21T09:15:30;4.15;;;1.17;;
55300;SDS011;58302;51.446;-2.000;2023-03-21T09:17:57;4.97;;;2.05;;
55300;SDS011;58302;51.446;-2.000;2023-03-21T09:20:37;4.88;;;1.80;;
55300;SDS011;58302;51.446;-2.000;2023-03-21T09:23:05;2.92;;;1.75;;
55300;SDS011;58302;51.446;-2.000;2023-03-21T09:25:31;3.45;;;1.33;;
55300;SDS011;58302;51.446;-2.000;2023-03-21T09:27:57;7.53;;;1.65;;
55300;SDS011;58302;51.446;-2.000;2023-03-21T09:30:24;2.72;;;1.52;;
55300;SDS011;58302;51.446;-2.000;2023-03-21T09:32:50;5.60;;;1.73;;
55300;SDS011;58302;51.446;-2.000;2023-03-21T09:35:18;2.95;;;1.63;;
55300;SDS011;58302;51.446;-2.000;2023-03-21T09:37:45;5.82;;;1.50;;
55300;SDS011;58302;51.446;-2.000;2023-03-21T09:40:17;4.47;;;1.20;;
55300;SDS011;58302;51.446;-2.000;2023-03-21T09:42:57;4.20;;;1.27;;
55300;SDS011;58302;51.446;-2.000;2023-03-21T09:45:42;3.80;;;1.30;;
55300;SDS011;58302;51.446;-2.000;2023-03-21T09:48:22;2.50;;;1.20;;
55300;SDS011;58302;51.446;-2.000;2023-03-21T09:51:01;4.00;;;1.20;;
55300;SDS011;58302;51.446;-2.000;2023-03-21T09:53:31;3.53;;;0.93;;
55300;SDS011;58302;51.446;-2.000;2023-03-21T09:56:02;4.20;;;1.27;;
55300;SDS011;58302;51.446;-2.000;2023-03-21T09:58:43;3.30;;;1.02;;
55300;SDS011;58302;51.446;-2.000;2023-03-21T10:01:18;7.53;;;1.63;;
55300;SDS011;58302;51.446;-2.000;2023-03-21T10:04:01;3.78;;;1.80;;
55300;SDS011;58302;51.446;-2.000;2023-03-21T10:06:30;1.85;;;1.30;;
55300;SDS011;58302;51.446;-2.000;2023-03-21T10:09:02;2.03;;;1.42;;
55300;SDS011;58302;51.446;-2.000;2023-03-21T10:11:45;3.75;;;1.08;;
55300;SDS011;58302;51.446;-2.000;2023-03-21T10:17:34;3.33;;;0.90;;
55300;SDS011;58302;51.446;-2.000;2023-03-21T10:20:15;1.65;;;0.73;;
55300;SDS011;58302;51.446;-2.000;2023-03-21T10:22:46;4.50;;;1.40;;
55300;SDS011;58302;51.446;-2.000;2023-03-21T10:25:15;1.25;;;0.70;;
55300;SDS011;58302;51.446;-2.000;2023-03-21T10:27:43;3.25;;;1.17;;
55300;SDS011;58302;51.446;-2.000;2023-03-21T10:30:17;2.20;;;1.05;;
55300;SDS011;58302;51.446;-2.000;2023-03-21T10:32:49;1.83;;;0.77;;
55300;SDS011;58302;51.446;-2.000;2023-03-21T10:35:15;2.70;;;0.93;;
55300;SDS011;58302;51.446;-2.000;2023-03-21T10:37:42;3.92;;;1.40;;
55300;SDS011;58302;51.446;-2.000;2023-03-21T10:40:12;1.88;;;0.70;;
55300;SDS011;58302;51.446;-2.000;2023-03-21T10:42:41;2.45;;;0.95;;
55300;SDS011;58302;51.446;-2.000;2023-03-21T10:45:15;2.88;;;1.23;;
55300;SDS011;58302;51.446;-2.000;2023-03-21T10:47:43;2.25;;;1.38;;
55300;SDS011;58302;51.446;-2.000;2023-03-21T10:50:13;3.67;;;1.10;;
55300;SDS011;58302;51.446;-2.000;2023-03-21T10:52:45;1.00;;;0.70;;
55300;SDS011;58302;51.446;-2.000;2023-03-21T10:55:24;1.70;;;0.70;;
55300;SDS011;58302;51.446;-2.000;2023-03-21T10:57:56;1.50;;;0.90;;
55300;SDS011;58302;51.446;-2.000;2023-03-21T11:00:33;3.35;;;1.13;;
55300;SDS011;58302;51.446;-2.000;2023-03-21T11:03:01;2.72;;;0.77;;
55300;SDS011;58302;51.446;-2.000;2023-03-21T11:05:35;2.13;;;0.77;;
55300;SDS011;58302;51.446;-2.000;2023-03-21T11:08:11;3.38;;;1.15;;
55300;SDS011;58302;51.446;-2.000;2023-03-21T11:10:50;2.55;;;1.33;;
55300;SDS011;58302;51.446;-2.000;2023-03-21T11:13:23;5.07;;;1.45;;
55300;SDS011;58302;51.446;-2.000;2023-03-21T11:15:52;3.70;;;1.10;;
55300;SDS011;58302;51.446;-2.000;2023-03-21T11:18:24;1.40;;;0.80;;
55300;SDS011;58302;51.446;-2.000;2023-03-21T11:20:53;1.58;;;0.93;;
55300;SDS011;58302;51.446;-2.000;2023-03-21T11:23:25;2.85;;;1.30;;
55300;SDS011;58302;51.446;-2.000;2023-03-21T11:25:53;3.60;;;1.05;;
55300;SDS011;58302;51.446;-2.000;2023-03-21T11:28:21;2.17;;;0.82;;
55300;SDS011;58302;51.446;-2.000;2023-03-21T11:30:55;2.60;;;0.70;;
55300;SDS011;58302;51.446;-2.000;2023-03-21T11:33:27;0.80;;;0.52;;
55300;SDS011;58302;51.446;-2.000;2023-03-21T11:36:43;2.78;;;1.05;;
55300;SDS011;58302;51.446;-2.000;2023-03-21T11:38:47;2.33;;;0.82;;
55300;SDS011;58302;51.446;-2.000;2023-03-21T11:41:21;2.13;;;1.00;;
55300;SDS011;58302;51.446;-2.000;2023-03-21T11:43:52;2.70;;;1.23;;
55300;SDS011;58302;51.446;-2.000;2023-03-21T11:46:26;0.95;;;0.85;;
55300;SDS011;58302;51.446;-2.000;2023-03-21T11:48:53;0.98;;;0.70;;
55300;SDS011;58302;51.446;-2.000;2023-03-21T11:54:13;1.23;;;0.70;;
55300;SDS011;58302;51.446;-2.000;2023-03-21T11:56:44;2.38;;;0.90;;
55300;SDS011;58302;51.446;-2.000;2023-03-21T12:05:06;2.08;;;0.90;;
55300;SDS011;58302;51.446;-2.000;2023-03-21T12:11:16;1.83;;;0.77;;
55300;SDS011;58302;51.446;-2.000;2023-03-21T12:13:26;1.30;;;0.90;;
55300;SDS011;58302;51.446;-2.000;2023-03-21T12:21:18;1.02;;;0.50;;
55300;SDS011;58302;51.446;-2.000;2023-03-21T12:24:00;1.25;;;0.68;;
55300;SDS011;58302;51.446;-2.000;2023-03-21T12:26:42;1.15;;;0.45;;
55300;SDS011;58302;51.446;-2.000;2023-03-21T12:29:24;0.98;;;0.50;;
55300;SDS011;58302;51.446;-2.000;2023-03-21T12:37:52;0.75;;;0.52;;
55300;SDS011;58302;51.446;-2.000;2023-03-21T12:40:43;1.08;;;0.77;;
55300;SDS011;58302;51.446;-2.000;2023-03-21T12:46:21;0.70;;;0.57;;
55300;SDS011;58302;51.446;-2.000;2023-03-21T12:51:45;1.25;;;0.77;;
55300;SDS011;58302;51.446;-2.000;2023-03-21T13:01:57;1.02;;;0.55;;
55300;SDS011;58302;51.446;-2.000;2023-03-21T13:04:31;4.20;;;1.27;;
55300;SDS011;58302;51.446;-2.000;2023-03-21T13:07:02;1.20;;;0.95;;
55300;SDS011;58302;51.446;-2.000;2023-03-21T13:09:36;1.35;;;0.80;;
55300;SDS011;58302;51.446;-2.000;2023-03-21T13:12:06;3.10;;;0.80;;
55300;SDS011;58302;51.446;-2.000;2023-03-21T13:14:54;2.38;;;0.90;;
55300;SDS011;58302;51.446;-2.000;2023-03-21T13:17:35;2.72;;;0.80;;
55300;SDS011;58302;51.446;-2.000;2023-03-21T13:20:12;2.80;;;1.00;;
55300;SDS011;58302;51.446;-2.000;2023-03-21T13:22:47;1.63;;;0.82;;
55300;SDS011;58302;51.446;-2.000;2023-03-21T13:25:22;2.78;;;0.88;;
55300;SDS011;58302;51.446;-2.000;2023-03-21T13:27:53;2.40;;;0.95;;
55300;SDS011;58302;51.446;-2.000;2023-03-21T13:30:26;2.83;;;1.13;;
55300;SDS011;58302;51.446;-2.000;2023-03-21T13:33:12;3.63;;;1.23;;
55300;SDS011;58302;51.446;-2.000;2023-03-21T13:35:54;2.80;;;1.30;;
55300;SDS011;58302;51.446;-2.000;2023-03-21T13:38:30;1.92;;;0.80;;
55300;SDS011;58302;51.446;-2.000;2023-03-21T13:41:07;3.35;;;1.73;;
55300;SDS011;58302;51.446;-2.000;2023-03-21T13:46:13;4.32;;;1.15;;
55300;SDS011;58302;51.446;-2.000;2023-03-21T13:48:59;4.32;;;1.48;;
55300;SDS011;58302;51.446;-2.000;2023-03-21T13:51:51;3.35;;;1.25;;
55300;SDS011;58302;51.446;-2.000;2023-03-21T13:54:44;4.90;;;1.30;;
55300;SDS011;58302;51.446;-2.000;2023-03-21T13:57:37;5.28;;;1.20;;
55300;SDS011;58302;51.446;-2.000;2023-03-21T14:02:52;4.65;;;1.40;;
55300;SDS011;58302;51.446;-2.000;2023-03-21T14:05:22;1.95;;;0.82;;
55300;SDS011;58302;51.446;-2.000;2023-03-21T14:07:52;5.05;;;1.20;;
55300;SDS011;58302;51.446;-2.000;2023-03-21T14:12:55;3.85;;;1.48;;
55300;SDS011;58302;51.446;-2.000;2023-03-21T14:15:23;6.07;;;1.80;;
55300;SDS011;58302;51.446;-2.000;2023-03-21T14:17:56;4.00;;;1.70;;
55300;SDS011;58302;51.446;-2.000;2023-03-21T14:20:29;4.20;;;1.20;;
55300;SDS011;58302;51.446;-2.000;2023-03-21T14:22:57;2.03;;;1.08;;
55300;SDS011;58302;51.446;-2.000;2023-03-21T14:25:24;5.45;;;1.98;;
55300;SDS011;58302;51.446;-2.000;2023-03-21T14:27:59;1.95;;;1.08;;
55300;SDS011;58302;51.446;-2.000;2023-03-21T14:30:32;2.63;;;1.20;;
55300;SDS011;58302;51.446;-2.000;2023-03-21T14:36:05;2.63;;;0.90;;
55300;SDS011;58302;51.446;-2.000;2023-03-21T14:38:36;2.70;;;0.98;;
55300;SDS011;58302;51.446;-2.000;2023-03-21T14:41:03;2.53;;;1.20;;
55300;SDS011;58302;51.446;-2.000;2023-03-21T14:43:31;1.77;;;1.05;;
55300;SDS011;58302;51.446;-2.000;2023-03-21T14:45:59;2.03;;;0.90;;
55300;SDS011;58302;51.446;-2.000;2023-03-21T14:48:29;4.55;;;1.70;;
55300;SDS011;58302;51.446;-2.000;2023-03-21T14:50:57;3.90;;;2.17;;
55300;SDS011;58302;51.446;-2.000;2023-03-21T14:53:31;3.15;;;1.05;;
55300;SDS011;58302;51.446;-2.000;2023-03-21T14:56:05;3.40;;;1.80;;
55300;SDS011;58302;51.446;-2.000;2023-03-21T14:58:37;3.88;;;2.15;;
55300;SDS011;58302;51.446;-2.000;2023-03-21T15:01:05;3.08;;;1.25;;
55300;SDS011;58302;51.446;-2.000;2023-03-21T15:03:38;5.07;;;1.52;;
55300;SDS011;58302;51.446;-2.000;2023-03-21T15:06:04;3.78;;;2.22;;
55300;SDS011;58302;51.446;-2.000;2023-03-21T15:08:38;3.63;;;1.90;;
55300;SDS011;58302;51.446;-2.000;2023-03-21T15:11:05;8.55;;;1.70;;
55300;SDS011;58302;51.446;-2.000;2023-03-21T15:13:34;7.82;;;2.33;;
55300;SDS011;58302;51.446;-2.000;2023-03-21T15:16:05;4.90;;;2.00;;
55300;SDS011;58302;51.446;-2.000;2023-03-21T15:18:33;4.45;;;2.05;;
55300;SDS011;58302;51.446;-2.000;2023-03-21T15:21:02;6.35;;;2.47;;
55300;SDS011;58302;51.446;-2.000;2023-03-21T15:23:34;7.18;;;1.65;;
55300;SDS011;58302;51.446;-2.000;2023-03-21T15:26:05;6.65;;;1.90;;
55300;SDS011;58302;51.446;-2.000;2023-03-21T15:28:32;3.63;;;2.50;;
55300;SDS011;58302;51.446;-2.000;2023-03-21T15:30:59;6.63;;;2.00;;
55300;SDS011;58302;51.446;-2.000;2023-03-21T15:33:26;5.25;;;2.70;;
55300;SDS011;58302;51.446;-2.000;2023-03-21T15:35:53;7.13;;;2.25;;
55300;SDS011;58302;51.446;-2.000;2023-03-21T15:38:37;10.45;;;3.40;;
55300;SDS011;58302;51.446;-2.000;2023-03-21T15:41:13;7.25;;;2.83;;
55300;SDS011;58302;51.446;-2.000;2023-03-21T15:43:46;6.45;;;1.48;;
55300;SDS011;58302;51.446;-2.000;2023-03-21T15:46:40;3.42;;;2.03;;
55300;SDS011;58302;51.446;-2.000;2023-03-21T15:51:38;4.43;;;1.63;;
55300;SDS011;58302;51.446;-2.000;2023-03-21T15:54:10;8.43;;;4.88;;
55300;SDS011;58302;51.446;-2.000;2023-03-21T15:56:39;9.25;;;4.07;;
55300;SDS011;58302;51.446;-2.000;2023-03-21T15:59:14;5.57;;;2.28;;
55300;SDS011;58302;51.446;-2.000;2023-03-21T16:01:46;4.43;;;2.00;;
55300;SDS011;58302;51.446;-2.000;2023-03-21T16:04:13;6.78;;;2.28;;
55300;SDS011;58302;51.446;-2.000;2023-03-21T16:09:26;7.13;;;3.13;;
55300;SDS011;58302;51.446;-2.000;2023-03-21T16:11:54;7.57;;;1.80;;
55300;SDS011;58302;51.446;-2.000;2023-03-21T16:14:22;8.65;;;3.45;;
55300;SDS011;58302;51.446;-2.000;2023-03-21T16:16:52;8.13;;;1.85;;
55300;SDS011;58302;51.446;-2.000;2023-03-21T16:19:19;6.45;;;2.53;;
55300;SDS011;58302;51.446;-2.000;2023-03-21T16:21:45;4.38;;;2.05;;
55300;SDS011;58302;51.446;-2.000;2023-03-21T16:24:11;12.43;;;4.07;;
55300;SDS011;58302;51.446;-2.000;2023-03-21T16:26:40;9.85;;;3.10;;
55300;SDS011;58302;51.446;-2.000;2023-03-21T16:29:11;9.07;;;2.70;;